sensor_id;sensor_type;location;lat;lon;timestamp;P1;durP1;ratioP1;P2;durP2;ratioP2
77191;SDS011;66172;48.526;8.078;2023-04-01T00:01:34;3.63;;;0.37;;
77191;SDS011;66172;48.526;8.078;2023-04-01T00:03:59;4.17;;;0.43;;
77191;SDS011;66172;48.526;8.078;2023-04-01T00:06:27;3.20;;;0.20;;
77191;SDS011;66172;48.526;8.078;2023-04-01T00:08:53;2.10;;;0.20;;
77191;SDS011;66172;48.526;8.078;2023-04-01T00:11:19;3.53;;;0.50;;
77191;SDS011;66172;48.526;8.078;2023-04-01T00:13:46;3.10;;;0.20;;
77191;SDS011;66172;48.526;8.078;2023-04-01T00:16:12;3.78;;;0.30;;
77191;SDS011;66172;48.526;8.078;2023-04-01T00:18:39;3.83;;;0.30;;
77191;SDS011;66172;48.526;8.078;2023-04-01T00:21:05;4.22;;;0.30;;
77191;SDS011;66172;48.526;8.078;2023-04-01T00:23:30;5.50;;;0.37;;
77191;SDS011;66172;48.526;8.078;2023-04-01T00:25:59;4.93;;;0.40;;
77191;SDS011;66172;48.526;8.078;2023-04-01T00:28:26;2.63;;;0.20;;
77191;SDS011;66172;48.526;8.078;2023-04-01T00:30:52;2.25;;;0.32;;
77191;SDS011;66172;48.526;8.078;2023-04-01T00:33:18;3.23;;;0.20;;
77191;SDS011;66172;48.526;8.078;2023-04-01T00:35:44;3.97;;;0.22;;
77191;SDS011;66172;48.526;8.078;2023-04-01T00:38:10;2.15;;;0.20;;
77191;SDS011;66172;48.526;8.078;2023-04-01T00:40:38;2.38;;;0.20;;
77191;SDS011;66172;48.526;8.078;2023-04-01T00:43:14;2.17;;;0.20;;
77191;SDS011;66172;48.526;8.078;2023-04-01T00:45:45;2.67;;;0.20;;
77191;SDS011;66172;48.526;8.078;2023-04-01T00:48:14;2.90;;;0.20;;
77191;SDS011;66172;48.526;8.078;2023-04-01T00:50:54;2.63;;;0.20;;
77191;SDS011;66172;48.526;8.078;2023-04-01T00:53:21;2.70;;;0.20;;
77191;SDS011;66172;48.526;8.078;2023-04-01T00:55:54;2.30;;;0.30;;
77191;SDS011;66172;48.526;8.078;2023-04-01T00:58:24;3.67;;;0.10;;
77191;SDS011;66172;48.526;8.078;2023-04-01T01:00:51;1.20;;;0.10;;
77191;SDS011;66172;48.526;8.078;2023-04-01T01:03:17;1.45;;;0.20;;
77191;SDS011;66172;48.526;8.078;2023-04-01T01:11:29;1.50;;;0.10;;
77191;SDS011;66172;48.526;8.078;2023-04-01T01:14:06;1.27;;;0.20;;
77191;SDS011;66172;48.526;8.078;2023-04-01T01:16:43;2.00;;;0.10;;
77191;SDS011;66172;48.526;8.078;2023-04-01T01:19:26;1.67;;;0.10;;
77191;SDS011;66172;48.526;8.078;2023-04-01T01:22:36;1.17;;;0.10;;
77191;SDS011;66172;48.526;8.078;2023-04-01T01:25:31;1.63;;;0.10;;
77191;SDS011;66172;48.526;8.078;2023-04-01T01:31:03;2.22;;;0.25;;
77191;SDS011;66172;48.526;8.078;2023-04-01T01:36:39;1.33;;;0.10;;
77191;SDS011;66172;48.526;8.078;2023-04-01T01:39:10;1.30;;;0.10;;
77191;SDS011;66172;48.526;8.078;2023-04-01T01:41:39;1.63;;;0.15;;
77191;SDS011;66172;48.526;8.078;2023-04-01T01:44:08;1.70;;;0.10;;
77191;SDS011;66172;48.526;8.078;2023-04-01T01:46:36;1.50;;;0.13;;
77191;SDS011;66172;48.526;8.078;2023-04-01T01:49:05;1.70;;;0.10;;
77191;SDS011;66172;48.526;8.078;2023-04-01T01:51:35;1.95;;;0.20;;
77191;SDS011;66172;48.526;8.078;2023-04-01T01:54:01;1.40;;;0.20;;
77191;SDS011;66172;48.526;8.078;2023-04-01T01:56:28;1.15;;;0.10;;
77191;SDS011;66172;48.526;8.078;2023-04-01T01:58:56;1.92;;;0.10;;
77191;SDS011;66172;48.526;8.078;2023-04-01T02:01:29;1.30;;;0.10;;
77191;SDS011;66172;48.526;8.078;2023-04-01T02:03:58;2.20;;;0.20;;
77191;SDS011;66172;48.526;8.078;2023-04-01T02:06:25;2.08;;;0.20;;
77191;SDS011;66172;48.526;8.078;2023-04-01T02:08:55;2.80;;;0.10;;
77191;SDS011;66172;48.526;8.078;2023-04-01T02:11:34;2.40;;;0.17;;
77191;SDS011;66172;48.526;8.078;2023-04-01T02:14:15;1.47;;;0.10;;
77191;SDS011;66172;48.526;8.078;2023-04-01T02:16:45;2.95;;;0.20;;
77191;SDS011;66172;48.526;8.078;2023-04-01T02:19:12;1.60;;;0.13;;
77191;SDS011;66172;48.526;8.078;2023-04-01T02:21:39;1.65;;;0.10;;
77191;SDS011;66172;48.526;8.078;2023-04-01T02:24:09;1.77;;;0.20;;
77191;SDS011;66172;48.526;8.078;2023-04-01T02:26:39;2.00;;;0.30;;
77191;SDS011;66172;48.526;8.078;2023-04-01T02:29:06;2.53;;;0.20;;
77191;SDS011;66172;48.526;8.078;2023-04-01T02:31:34;1.77;;;0.20;;
77191;SDS011;66172;48.526;8.078;2023-04-01T02:34:02;1.13;;;0.15;;
77191;SDS011;66172;48.526;8.078;2023-04-01T02:36:28;2.05;;;0.20;;
77191;SDS011;66172;48.526;8.078;2023-04-01T02:38:54;1.20;;;0.10;;
77191;SDS011;66172;48.526;8.078;2023-04-01T02:41:24;1.73;;;0.15;;
77191;SDS011;66172;48.526;8.078;2023-04-01T02:43:50;2.72;;;0.20;;
77191;SDS011;66172;48.526;8.078;2023-04-01T02:46:16;1.63;;;0.20;;
77191;SDS011;66172;48.526;8.078;2023-04-01T02:48:42;1.93;;;0.30;;
77191;SDS011;66172;48.526;8.078;2023-04-01T02:51:08;2.45;;;0.20;;
77191;SDS011;66172;48.526;8.078;2023-04-01T02:53:34;2.25;;;0.20;;
77191;SDS011;66172;48.526;8.078;2023-04-01T02:56:00;1.77;;;0.20;;
77191;SDS011;66172;48.526;8.078;2023-04-01T02:58:26;2.97;;;0.20;;
77191;SDS011;66172;48.526;8.078;2023-04-01T03:00:52;2.15;;;0.13;;
77191;SDS011;66172;48.526;8.078;2023-04-01T03:03:18;3.53;;;0.10;;
77191;SDS011;66172;48.526;8.078;2023-04-01T03:05:44;2.97;;;0.20;;
77191;SDS011;66172;48.526;8.078;2023-04-01T03:08:10;3.20;;;0.20;;
77191;SDS011;66172;48.526;8.078;2023-04-01T03:10:36;2.45;;;0.20;;
77191;SDS011;66172;48.526;8.078;2023-04-01T03:13:02;2.90;;;0.20;;
77191;SDS011;66172;48.526;8.078;2023-04-01T03:15:27;3.77;;;0.30;;
77191;SDS011;66172;48.526;8.078;2023-04-01T03:17:53;2.63;;;0.20;;
77191;SDS011;66172;48.526;8.078;2023-04-01T03:20:19;3.25;;;0.20;;
77191;SDS011;66172;48.526;8.078;2023-04-01T03:22:45;4.05;;;0.30;;
77191;SDS011;66172;48.526;8.078;2023-04-01T03:25:12;3.90;;;0.30;;
77191;SDS011;66172;48.526;8.078;2023-04-01T03:27:38;3.67;;;0.30;;
77191;SDS011;66172;48.526;8.078;2023-04-01T03:30:04;3.95;;;0.30;;
77191;SDS011;66172;48.526;8.078;2023-04-01T03:32:31;3.15;;;0.30;;
77191;SDS011;66172;48.526;8.078;2023-04-01T03:34:57;4.72;;;0.45;;
77191;SDS011;66172;48.526;8.078;2023-04-01T03:37:23;5.20;;;0.60;;
77191;SDS011;66172;48.526;8.078;2023-04-01T03:39:50;4.07;;;0.40;;
77191;SDS011;66172;48.526;8.078;2023-04-01T03:42:16;5.32;;;0.50;;
77191;SDS011;66172;48.526;8.078;2023-04-01T03:44:43;5.28;;;0.68;;
77191;SDS011;66172;48.526;8.078;2023-04-01T03:47:09;5.17;;;0.50;;
77191;SDS011;66172;48.526;8.078;2023-04-01T03:49:35;4.95;;;0.40;;
77191;SDS011;66172;48.526;8.078;2023-04-01T03:52:01;4.95;;;0.50;;
77191;SDS011;66172;48.526;8.078;2023-04-01T03:54:27;7.25;;;0.85;;
77191;SDS011;66172;48.526;8.078;2023-04-01T03:56:52;5.60;;;0.37;;
77191;SDS011;66172;48.526;8.078;2023-04-01T03:59:18;6.05;;;0.80;;
77191;SDS011;66172;48.526;8.078;2023-04-01T04:01:45;5.72;;;0.30;;
77191;SDS011;66172;48.526;8.078;2023-04-01T04:04:12;3.88;;;0.60;;
77191;SDS011;66172;48.526;8.078;2023-04-01T04:06:41;3.53;;;0.40;;
77191;SDS011;66172;48.526;8.078;2023-04-01T04:09:07;3.72;;;0.40;;
77191;SDS011;66172;48.526;8.078;2023-04-01T04:11:33;4.07;;;0.60;;
77191;SDS011;66172;48.526;8.078;2023-04-01T04:13:59;5.10;;;0.37;;
77191;SDS011;66172;48.526;8.078;2023-04-01T04:16:25;4.45;;;0.30;;
77191;SDS011;66172;48.526;8.078;2023-04-01T04:18:51;4.15;;;0.30;;
77191;SDS011;66172;48.526;8.078;2023-04-01T04:21:16;4.97;;;0.50;;
77191;SDS011;66172;48.526;8.078;2023-04-01T04:23:43;5.30;;;0.40;;
77191;SDS011;66172;48.526;8.078;2023-04-01T04:26:11;7.10;;;0.43;;
77191;SDS011;66172;48.526;8.078;2023-04-01T04:28:39;4.75;;;0.30;;
77191;SDS011;66172;48.526;8.078;2023-04-01T04:31:05;2.55;;;0.20;;
77191;SDS011;66172;48.526;8.078;2023-04-01T04:33:32;3.20;;;0.28;;
77191;SDS011;66172;48.526;8.078;2023-04-01T04:35:58;4.33;;;0.20;;
77191;SDS011;66172;48.526;8.078;2023-04-01T04:38:25;3.30;;;0.20;;
77191;SDS011;66172;48.526;8.078;2023-04-01T04:40:51;3.10;;;0.22;;
77191;SDS011;66172;48.526;8.078;2023-04-01T04:43:17;3.92;;;0.30;;
77191;SDS011;66172;48.526;8.078;2023-04-01T04:45:44;2.40;;;0.32;;
77191;SDS011;66172;48.526;8.078;2023-04-01T04:48:11;4.33;;;0.30;;
77191;SDS011;66172;48.526;8.078;2023-04-01T04:50:44;3.53;;;0.20;;
77191;SDS011;66172;48.526;8.078;2023-04-01T04:53:11;2.40;;;0.20;;
77191;SDS011;66172;48.526;8.078;2023-04-01T04:55:42;1.85;;;0.10;;
77191;SDS011;66172;48.526;8.078;2023-04-01T04:58:15;3.50;;;0.30;;
77191;SDS011;66172;48.526;8.078;2023-04-01T05:00:41;4.37;;;0.30;;
77191;SDS011;66172;48.526;8.078;2023-04-01T05:03:07;2.63;;;0.45;;
77191;SDS011;66172;48.526;8.078;2023-04-01T05:05:34;2.90;;;0.50;;
77191;SDS011;66172;48.526;8.078;2023-04-01T05:08:00;4.43;;;0.30;;
77191;SDS011;66172;48.526;8.078;2023-04-01T05:10:26;6.65;;;0.75;;
77191;SDS011;66172;48.526;8.078;2023-04-01T05:12:52;7.30;;;0.60;;
77191;SDS011;66172;48.526;8.078;2023-04-01T05:15:18;5.25;;;0.20;;
77191;SDS011;66172;48.526;8.078;2023-04-01T05:17:44;4.03;;;0.30;;
77191;SDS011;66172;48.526;8.078;2023-04-01T05:20:11;5.90;;;0.40;;
77191;SDS011;66172;48.526;8.078;2023-04-01T05:22:38;3.00;;;0.20;;
77191;SDS011;66172;48.526;8.078;2023-04-01T05:25:04;3.45;;;0.30;;
77191;SDS011;66172;48.526;8.078;2023-04-01T05:27:30;3.03;;;0.40;;
77191;SDS011;66172;48.526;8.078;2023-04-01T05:29:57;3.58;;;0.30;;
77191;SDS011;66172;48.526;8.078;2023-04-01T05:32:23;3.03;;;0.30;;
77191;SDS011;66172;48.526;8.078;2023-04-01T05:34:52;3.78;;;0.20;;
77191;SDS011;66172;48.526;8.078;2023-04-01T05:37:19;4.38;;;0.40;;
77191;SDS011;66172;48.526;8.078;2023-04-01T05:39:45;3.83;;;0.30;;
77191;SDS011;66172;48.526;8.078;2023-04-01T05:42:11;3.50;;;0.30;;
77191;SDS011;66172;48.526;8.078;2023-04-01T05:44:37;3.40;;;0.20;;
77191;SDS011;66172;48.526;8.078;2023-04-01T05:47:03;3.97;;;0.32;;
77191;SDS011;66172;48.526;8.078;2023-04-01T05:49:30;4.18;;;0.43;;
77191;SDS011;66172;48.526;8.078;2023-04-01T05:51:56;3.53;;;0.40;;
77191;SDS011;66172;48.526;8.078;2023-04-01T05:54:22;4.17;;;0.20;;
77191;SDS011;66172;48.526;8.078;2023-04-01T05:56:48;3.85;;;0.40;;
77191;SDS011;66172;48.526;8.078;2023-04-01T05:59:14;5.05;;;0.50;;
77191;SDS011;66172;48.526;8.078;2023-04-01T06:01:41;3.78;;;0.30;;
77191;SDS011;66172;48.526;8.078;2023-04-01T06:04:10;4.15;;;0.50;;
77191;SDS011;66172;48.526;8.078;2023-04-01T06:06:39;3.73;;;0.20;;
77191;SDS011;66172;48.526;8.078;2023-04-01T06:09:10;3.60;;;0.40;;
77191;SDS011;66172;48.526;8.078;2023-04-01T06:14:27;4.22;;;0.30;;
77191;SDS011;66172;48.526;8.078;2023-04-01T06:17:00;3.70;;;0.20;;
77191;SDS011;66172;48.526;8.078;2023-04-01T06:22:33;4.30;;;0.60;;
77191;SDS011;66172;48.526;8.078;2023-04-01T06:31:03;3.33;;;0.30;;
77191;SDS011;66172;48.526;8.078;2023-04-01T06:36:51;3.38;;;0.40;;
77191;SDS011;66172;48.526;8.078;2023-04-01T06:45:01;6.40;;;0.30;;
77191;SDS011;66172;48.526;8.078;2023-04-01T06:50:41;6.88;;;1.27;;
77191;SDS011;66172;48.526;8.078;2023-04-01T06:58:37;7.83;;;1.73;;
77191;SDS011;66172;48.526;8.078;2023-04-01T07:01:08;6.68;;;1.40;;
77191;SDS011;66172;48.526;8.078;2023-04-01T07:03:43;9.07;;;2.10;;
77191;SDS011;66172;48.526;8.078;2023-04-01T07:06:14;9.15;;;2.40;;
77191;SDS011;66172;48.526;8.078;2023-04-01T07:08:49;8.38;;;1.88;;
77191;SDS011;66172;48.526;8.078;2023-04-01T07:11:22;7.43;;;1.50;;
77191;SDS011;66172;48.526;8.078;2023-04-01T07:13:53;10.18;;;2.17;;
77191;SDS011;66172;48.526;8.078;2023-04-01T07:16:24;10.18;;;2.60;;
77191;SDS011;66172;48.526;8.078;2023-04-01T07:19:01;10.85;;;2.30;;
77191;SDS011;66172;48.526;8.078;2023-04-01T07:21:34;11.07;;;3.60;;
77191;SDS011;66172;48.526;8.078;2023-04-01T07:24:09;11.57;;;2.97;;
77191;SDS011;66172;48.526;8.078;2023-04-01T07:26:42;26.58;;;7.50;;
77191;SDS011;66172;48.526;8.078;2023-04-01T07:29:09;21.35;;;6.40;;
77191;SDS011;66172;48.526;8.078;2023-04-01T07:36:59;6.90;;;0.87;;
77191;SDS011;66172;48.526;8.078;2023-04-01T07:45:23;7.82;;;1.15;;
77191;SDS011;66172;48.526;8.078;2023-04-01T07:51:02;4.97;;;0.40;;
77191;SDS011;66172;48.526;8.078;2023-04-01T07:53:38;6.50;;;1.10;;
77191;SDS011;66172;48.526;8.078;2023-04-01T07:56:10;4.43;;;0.60;;
77191;SDS011;66172;48.526;8.078;2023-04-01T07:59:03;3.90;;;0.70;;
77191;SDS011;66172;48.526;8.078;2023-04-01T08:01:39;5.18;;;0.55;;
77191;SDS011;66172;48.526;8.078;2023-04-01T08:06:52;4.53;;;0.60;;
77191;SDS011;66172;48.526;8.078;2023-04-01T08:15:00;6.00;;;0.65;;
77191;SDS011;66172;48.526;8.078;2023-04-01T08:17:48;3.47;;;0.40;;
77191;SDS011;66172;48.526;8.078;2023-04-01T08:23:11;4.20;;;0.68;;
77191;SDS011;66172;48.526;8.078;2023-04-01T08:25:58;4.10;;;0.60;;
77191;SDS011;66172;48.526;8.078;2023-04-01T08:28:39;3.58;;;0.47;;
77191;SDS011;66172;48.526;8.078;2023-04-01T08:33:56;8.27;;;2.15;;
77191;SDS011;66172;48.526;8.078;2023-04-01T08:36:24;6.90;;;0.80;;
77191;SDS011;66172;48.526;8.078;2023-04-01T08:47:28;4.97;;;1.13;;
77191;SDS011;66172;48.526;8.078;2023-04-01T08:56:18;4.75;;;0.65;;
77191;SDS011;66172;48.526;8.078;2023-04-01T09:01:21;3.97;;;0.30;;
77191;SDS011;66172;48.526;8.078;2023-04-01T09:06:31;2.70;;;0.20;;
77191;SDS011;66172;48.526;8.078;2023-04-01T09:09:37;4.18;;;0.40;;
77191;SDS011;66172;48.526;8.078;2023-04-01T09:12:26;2.87;;;0.40;;
77191;SDS011;66172;48.526;8.078;2023-04-01T09:23:36;5.05;;;0.30;;
77191;SDS011;66172;48.526;8.078;2023-04-01T09:29:26;2.80;;;0.20;;
77191;SDS011;66172;48.526;8.078;2023-04-01T09:34:45;5.10;;;0.50;;
77191;SDS011;66172;48.526;8.078;2023-04-01T09:37:31;3.38;;;0.43;;
77191;SDS011;66172;48.526;8.078;2023-04-01T09:43:00;2.63;;;0.30;;
77191;SDS011;66172;48.526;8.078;2023-04-01T09:57:16;4.00;;;0.60;;
77191;SDS011;66172;48.526;8.078;2023-04-01T10:05:59;4.93;;;0.80;;
77191;SDS011;66172;48.526;8.078;2023-04-01T10:20:06;2.88;;;0.40;;
77191;SDS011;66172;48.526;8.078;2023-04-01T11:33:11;3.60;;;0.40;;
77191;SDS011;66172;48.526;8.078;2023-04-01T11:35:51;2.08;;;0.30;;
77191;SDS011;66172;48.526;8.078;2023-04-01T11:42:01;3.05;;;0.20;;
77191;SDS011;66172;48.526;8.078;2023-04-01T11:44:28;3.17;;;0.40;;
77191;SDS011;66172;48.526;8.078;2023-04-01T11:50:03;3.00;;;0.40;;
77191;SDS011;66172;48.526;8.078;2023-04-01T11:59:05;3.93;;;0.33;;
77191;SDS011;66172;48.526;8.078;2023-04-01T12:06:49;4.18;;;0.50;;
77191;SDS011;66172;48.526;8.078;2023-04-01T12:15:17;3.53;;;0.40;;
77191;SDS011;66172;48.526;8.078;2023-04-01T12:18:05;2.75;;;0.43;;
77191;SDS011;66172;48.526;8.078;2023-04-01T12:29:44;3.10;;;0.38;;
77191;SDS011;66172;48.526;8.078;2023-04-01T12:37:35;3.17;;;0.55;;
77191;SDS011;66172;48.526;8.078;2023-04-01T12:43:27;4.32;;;0.30;;
77191;SDS011;66172;48.526;8.078;2023-04-01T12:46:14;4.25;;;0.20;;
77191;SDS011;66172;48.526;8.078;2023-04-01T12:51:44;2.55;;;0.40;;
77191;SDS011;66172;48.526;8.078;2023-04-01T12:54:28;3.17;;;0.40;;
77191;SDS011;66172;48.526;8.078;2023-04-01T12:57:07;4.32;;;0.40;;
77191;SDS011;66172;48.526;8.078;2023-04-01T13:00:05;2.80;;;0.40;;
77191;SDS011;66172;48.526;8.078;2023-04-01T13:05:41;3.80;;;0.40;;
77191;SDS011;66172;48.526;8.078;2023-04-01T13:11:08;2.33;;;0.32;;
77191;SDS011;66172;48.526;8.078;2023-04-01T13:14:00;3.40;;;0.40;;
77191;SDS011;66172;48.526;8.078;2023-04-01T13:16:33;2.83;;;0.30;;
77191;SDS011;66172;48.526;8.078;2023-04-01T13:19:49;2.45;;;0.30;;
77191;SDS011;66172;48.526;8.078;2023-04-01T13:22:13;1.60;;;0.20;;
77191;SDS011;66172;48.526;8.078;2023-04-01T13:27:37;7.07;;;1.77;;
77191;SDS011;66172;48.526;8.078;2023-04-01T13:33:00;4.60;;;0.75;;
77191;SDS011;66172;48.526;8.078;2023-04-01T13:35:52;3.50;;;0.50;;
77191;SDS011;66172;48.526;8.078;2023-04-01T13:38:46;3.13;;;0.40;;
77191;SDS011;66172;48.526;8.078;2023-04-01T13:41:47;3.13;;;0.40;;
77191;SDS011;66172;48.526;8.078;2023-04-01T13:44:34;4.20;;;1.50;;
77191;SDS011;66172;48.526;8.078;2023-04-01T13:47:11;3.83;;;0.80;;
77191;SDS011;66172;48.526;8.078;2023-04-01T13:56:06;2.88;;;0.57;;
77191;SDS011;66172;48.526;8.078;2023-04-01T13:58:49;2.95;;;0.40;;
77191;SDS011;66172;48.526;8.078;2023-04-01T14:07:31;5.57;;;0.50;;
77191;SDS011;66172;48.526;8.078;2023-04-01T14:12:30;3.28;;;0.50;;
77191;SDS011;66172;48.526;8.078;2023-04-01T14:35:37;4.53;;;0.80;;
77191;SDS011;66172;48.526;8.078;2023-04-01T14:38:29;4.03;;;0.70;;
77191;SDS011;66172;48.526;8.078;2023-04-01T14:44:17;3.72;;;0.63;;
77191;SDS011;66172;48.526;8.078;2023-04-01T14:49:47;6.15;;;1.27;;
77191;SDS011;66172;48.526;8.078;2023-04-01T14:52:33;4.10;;;0.52;;
77191;SDS011;66172;48.526;8.078;2023-04-01T14:55:47;5.53;;;0.90;;
77191;SDS011;66172;48.526;8.078;2023-04-01T14:57:59;4.35;;;0.80;;
77191;SDS011;66172;48.526;8.078;2023-04-01T15:00:26;6.80;;;2.07;;
77191;SDS011;66172;48.526;8.078;2023-04-01T15:03:02;4.90;;;1.33;;
77191;SDS011;66172;48.526;8.078;2023-04-01T15:05:46;4.45;;;0.68;;
77191;SDS011;66172;48.526;8.078;2023-04-01T15:08:27;3.83;;;0.68;;
77191;SDS011;66172;48.526;8.078;2023-04-01T15:24:59;6.25;;;0.88;;
77191;SDS011;66172;48.526;8.078;2023-04-01T15:28:06;6.67;;;1.90;;
77191;SDS011;66172;48.526;8.078;2023-04-01T15:30:54;4.57;;;0.90;;
77191;SDS011;66172;48.526;8.078;2023-04-01T15:33:47;6.43;;;1.30;;
77191;SDS011;66172;48.526;8.078;2023-04-01T15:36:36;4.88;;;1.48;;
77191;SDS011;66172;48.526;8.078;2023-04-01T15:39:18;5.90;;;1.17;;
77191;SDS011;66172;48.526;8.078;2023-04-01T15:45:02;5.70;;;1.52;;
77191;SDS011;66172;48.526;8.078;2023-04-01T15:47:45;6.22;;;1.77;;
77191;SDS011;66172;48.526;8.078;2023-04-01T15:52:50;5.30;;;1.20;;
77191;SDS011;66172;48.526;8.078;2023-04-01T16:09:06;4.43;;;0.90;;
77191;SDS011;66172;48.526;8.078;2023-04-01T16:14:38;4.60;;;1.02;;
77191;SDS011;66172;48.526;8.078;2023-04-01T16:17:12;7.40;;;2.70;;
77191;SDS011;66172;48.526;8.078;2023-04-01T16:22:58;6.68;;;1.90;;
77191;SDS011;66172;48.526;8.078;2023-04-01T16:31:04;17.75;;;6.97;;
77191;SDS011;66172;48.526;8.078;2023-04-01T16:33:49;5.07;;;1.53;;
77191;SDS011;66172;48.526;8.078;2023-04-01T16:36:22;4.47;;;0.85;;
77191;SDS011;66172;48.526;8.078;2023-04-01T16:42:01;3.35;;;0.60;;
77191;SDS011;66172;48.526;8.078;2023-04-01T16:47:38;4.83;;;0.97;;
77191;SDS011;66172;48.526;8.078;2023-04-01T16:55:51;6.10;;;1.00;;
77191;SDS011;66172;48.526;8.078;2023-04-01T16:58:26;7.63;;;1.92;;
77191;SDS011;66172;48.526;8.078;2023-04-01T17:01:12;4.10;;;0.67;;
77191;SDS011;66172;48.526;8.078;2023-04-01T17:03:51;3.47;;;0.70;;
77191;SDS011;66172;48.526;8.078;2023-04-01T17:14:28;9.53;;;1.60;;
77191;SDS011;66172;48.526;8.078;2023-04-01T17:17:11;4.45;;;0.88;;
77191;SDS011;66172;48.526;8.078;2023-04-01T17:19:49;3.65;;;0.70;;
77191;SDS011;66172;48.526;8.078;2023-04-01T17:22:37;2.33;;;0.20;;
77191;SDS011;66172;48.526;8.078;2023-04-01T17:27:59;2.53;;;0.30;;
77191;SDS011;66172;48.526;8.078;2023-04-01T17:30:35;3.22;;;0.30;;
77191;SDS011;66172;48.526;8.078;2023-04-01T17:52:14;4.25;;;1.20;;
77191;SDS011;66172;48.526;8.078;2023-04-01T17:57:51;9.70;;;3.17;;
77191;SDS011;66172;48.526;8.078;2023-04-01T18:00:35;8.30;;;3.25;;
77191;SDS011;66172;48.526;8.078;2023-04-01T18:09:05;6.67;;;2.63;;
77191;SDS011;66172;48.526;8.078;2023-04-01T18:26:14;20.23;;;6.93;;
77191;SDS011;66172;48.526;8.078;2023-04-01T18:31:26;9.80;;;3.70;;
77191;SDS011;66172;48.526;8.078;2023-04-01T18:36:47;4.67;;;1.30;;
77191;SDS011;66172;48.526;8.078;2023-04-01T18:39:18;6.88;;;2.47;;
77191;SDS011;66172;48.526;8.078;2023-04-01T18:42:03;9.70;;;3.42;;
77191;SDS011;66172;48.526;8.078;2023-04-01T18:47:27;6.13;;;3.05;;
77191;SDS011;66172;48.526;8.078;2023-04-01T18:53:18;8.05;;;3.03;;
77191;SDS011;66172;48.526;8.078;2023-04-01T18:55:53;6.63;;;2.05;;
77191;SDS011;66172;48.526;8.078;2023-04-01T18:58:28;7.53;;;1.90;;
77191;SDS011;66172;48.526;8.078;2023-04-01T19:01:16;8.10;;;3.28;;
77191;SDS011;66172;48.526;8.078;2023-04-01T19:06:28;7.18;;;2.95;;
77191;SDS011;66172;48.526;8.078;2023-04-01T19:12:09;6.32;;;1.58;;
77191;SDS011;66172;48.526;8.078;2023-04-01T19:17:45;6.43;;;1.53;;
77191;SDS011;66172;48.526;8.078;2023-04-01T19:20:26;4.75;;;1.20;;
77191;SDS011;66172;48.526;8.078;2023-04-01T19:23:16;6.32;;;2.05;;
77191;SDS011;66172;48.526;8.078;2023-04-01T19:25:58;7.05;;;2.72;;
77191;SDS011;66172;48.526;8.078;2023-04-01T19:34:17;4.00;;;1.02;;
77191;SDS011;66172;48.526;8.078;2023-04-01T19:36:53;4.43;;;0.82;;
77191;SDS011;66172;48.526;8.078;2023-04-01T19:42:43;7.78;;;2.50;;
77191;SDS011;66172;48.526;8.078;2023-04-01T19:45:31;5.90;;;0.77;;
77191;SDS011;66172;48.526;8.078;2023-04-01T19:48:05;3.92;;;0.60;;
77191;SDS011;66172;48.526;8.078;2023-04-01T19:50:48;3.92;;;0.57;;
77191;SDS011;66172;48.526;8.078;2023-04-01T19:56:20;4.45;;;0.80;;
77191;SDS011;66172;48.526;8.078;2023-04-01T20:01:27;4.90;;;0.47;;
77191;SDS011;66172;48.526;8.078;2023-04-01T20:04:22;2.90;;;0.40;;
77191;SDS011;66172;48.526;8.078;2023-04-01T20:06:55;4.93;;;2.00;;
77191;SDS011;66172;48.526;8.078;2023-04-01T20:15:04;5.35;;;0.80;;
77191;SDS011;66172;48.526;8.078;2023-04-01T20:17:44;3.72;;;1.05;;
77191;SDS011;66172;48.526;8.078;2023-04-01T20:25:16;3.73;;;0.90;;
77191;SDS011;66172;48.526;8.078;2023-04-01T20:27:48;4.32;;;0.70;;
77191;SDS011;66172;48.526;8.078;2023-04-01T20:38:35;7.27;;;1.20;;
77191;SDS011;66172;48.526;8.078;2023-04-01T20:41:06;6.28;;;0.90;;
77191;SDS011;66172;48.526;8.078;2023-04-01T20:43:49;4.88;;;1.10;;
77191;SDS011;66172;48.526;8.078;2023-04-01T20:46:27;6.75;;;1.70;;
77191;SDS011;66172;48.526;8.078;2023-04-01T20:51:54;4.30;;;1.10;;
77191;SDS011;66172;48.526;8.078;2023-04-01T20:54:54;4.30;;;1.52;;
77191;SDS011;66172;48.526;8.078;2023-04-01T20:57:35;5.25;;;1.23;;
77191;SDS011;66172;48.526;8.078;2023-04-01T21:11:27;3.33;;;0.60;;
77191;SDS011;66172;48.526;8.078;2023-04-01T21:17:19;4.82;;;0.90;;
77191;SDS011;66172;48.526;8.078;2023-04-01T21:22:49;4.80;;;0.68;;
77191;SDS011;66172;48.526;8.078;2023-04-01T21:25:20;3.92;;;0.70;;
77191;SDS011;66172;48.526;8.078;2023-04-01T21:28:00;5.63;;;0.90;;
77191;SDS011;66172;48.526;8.078;2023-04-01T21:33:28;3.80;;;0.70;;
77191;SDS011;66172;48.526;8.078;2023-04-01T21:39:30;7.82;;;2.38;;
77191;SDS011;66172;48.526;8.078;2023-04-01T21:44:54;3.63;;;0.93;;
77191;SDS011;66172;48.526;8.078;2023-04-01T21:56:43;13.93;;;4.22;;
77191;SDS011;66172;48.526;8.078;2023-04-01T21:59:29;4.65;;;0.93;;
77191;SDS011;66172;48.526;8.078;2023-04-01T22:05:25;3.20;;;0.55;;
77191;SDS011;66172;48.526;8.078;2023-04-01T22:13:34;6.75;;;0.85;;
77191;SDS011;66172;48.526;8.078;2023-04-01T22:18:57;2.97;;;0.35;;
77191;SDS011;66172;48.526;8.078;2023-04-01T22:26:50;3.33;;;0.50;;
77191;SDS011;66172;48.526;8.078;2023-04-01T22:31:48;3.40;;;0.40;;
77191;SDS011;66172;48.526;8.078;2023-04-01T22:50:47;2.13;;;0.20;;
77191;SDS011;66172;48.526;8.078;2023-04-01T22:56:26;2.87;;;0.40;;
77191;SDS011;66172;48.526;8.078;2023-04-01T22:59:00;3.20;;;0.40;;
77191;SDS011;66172;48.526;8.078;2023-04-01T23:01:40;3.05;;;0.40;;
77191;SDS011;66172;48.526;8.078;2023-04-01T23:04:12;2.67;;;0.22;;
77191;SDS011;66172;48.526;8.078;2023-04-01T23:06:44;5.00;;;1.10;;
77191;SDS011;66172;48.526;8.078;2023-04-01T23:09:28;2.30;;;0.27;;
77191;SDS011;66172;48.526;8.078;2023-04-01T23:12:09;2.30;;;0.20;;
77191;SDS011;66172;48.526;8.078;2023-04-01T23:14:46;4.90;;;0.32;;
77191;SDS011;66172;48.526;8.078;2023-04-01T23:23:15;3.70;;;0.30;;
77191;SDS011;66172;48.526;8.078;2023-04-01T23:26:29;5.25;;;0.30;;
77191;SDS011;66172;48.526;8.078;2023-04-01T23:31:30;3.80;;;0.30;;
77191;SDS011;66172;48.526;8.078;2023-04-01T23:34:00;2.90;;;0.40;;
77191;SDS011;66172;48.526;8.078;2023-04-01T23:36:29;6.67;;;1.10;;
77191;SDS011;66172;48.526;8.078;2023-04-01T23:38:56;4.18;;;0.43;;
77191;SDS011;66172;48.526;8.078;2023-04-01T23:41:29;2.80;;;0.30;;
77191;SDS011;66172;48.526;8.078;2023-04-01T23:46:31;2.85;;;0.40;;
77191;SDS011;66172;48.526;8.078;2023-04-01T23:49:00;2.43;;;0.30;;
77191;SDS011;66172;48.526;8.078;2023-04-01T23:51:28;4.05;;;0.40;;
77191;SDS011;66172;48.526;8.078;2023-04-01T23:54:10;2.47;;;0.40;;
77191;SDS011;66172;48.526;8.078;2023-04-01T23:56:48;2.03;;;0.20;;
77191;SDS011;66172;48.526;8.078;2023-04-01T23:59:19;2.03;;;0.20;;
